createdAt,value
2022-09-07T00:02:15.890Z,4.00
2022-09-07T00:04:50.965Z,3.93
2022-09-07T00:07:23.445Z,4.20
2022-09-07T00:09:56.093Z,3.60
2022-09-07T00:12:28.903Z,3.90
2022-09-07T00:15:02.410Z,4.37
2022-09-07T00:17:37.345Z,4.63
2022-09-07T00:20:13.771Z,4.00
2022-09-07T00:22:46.742Z,4.63
2022-09-07T00:25:19.571Z,4.20
2022-09-07T00:27:52.075Z,4.40
2022-09-07T00:30:24.764Z,4.77
2022-09-07T00:32:57.347Z,4.40
2022-09-07T00:35:29.915Z,5.27
2022-09-07T00:38:03.769Z,3.92
2022-09-07T00:40:37.965Z,4.50
2022-09-07T00:45:42.075Z,3.87
2022-09-07T00:48:20.086Z,4.73
2022-09-07T00:50:58.473Z,5.03
2022-09-07T00:53:38.129Z,4.97
2022-09-07T00:56:11.866Z,3.60
2022-09-07T00:58:46.999Z,4.33
2022-09-07T01:01:20.696Z,4.33
2022-09-07T01:03:55.447Z,4.60
2022-09-07T01:06:35.197Z,4.60
2022-09-07T01:09:12.914Z,5.37
2022-09-07T01:11:51.339Z,4.60
2022-09-07T01:14:29.513Z,4.50
2022-09-07T01:17:12.074Z,4.60
2022-09-07T01:20:07.060Z,5.00
2022-09-07T01:23:07.723Z,4.23
2022-09-07T01:25:49.532Z,4.57
2022-09-07T01:28:24.389Z,4.50
2022-09-07T01:31:00.647Z,4.60
2022-09-07T01:33:46.374Z,4.47
2022-09-07T01:36:26.724Z,5.30
2022-09-07T01:39:03.534Z,4.97
2022-09-07T01:41:45.191Z,4.83
2022-09-07T01:44:22.561Z,4.40
2022-09-07T01:47:02.007Z,4.30
2022-09-07T01:49:41.481Z,4.83
2022-09-07T01:52:18.482Z,4.70
2022-09-07T01:54:58.794Z,4.53
2022-09-07T01:57:39.247Z,5.03
2022-09-07T02:00:15.744Z,4.77
2022-09-07T02:02:52.581Z,4.60
2022-09-07T02:05:34.554Z,5.33
2022-09-07T02:08:13.241Z,4.33
2022-09-07T02:10:51.857Z,5.17
2022-09-07T02:13:33.070Z,4.80
2022-09-07T02:16:11.302Z,4.87
2022-09-07T02:18:48.447Z,4.25
2022-09-07T02:21:25.597Z,4.63
2022-09-07T02:24:04.926Z,4.40
2022-09-07T02:26:40.801Z,4.97
2022-09-07T02:29:16.100Z,4.55
2022-09-07T02:31:52.217Z,5.00
2022-09-07T02:34:25.851Z,5.03
2022-09-07T02:36:59.672Z,5.25
2022-09-07T02:39:32.737Z,4.75
2022-09-07T02:42:06.321Z,4.60
2022-09-07T02:44:42.712Z,5.12
2022-09-07T02:47:27.956Z,4.63
2022-09-07T02:50:26.207Z,4.60
2022-09-07T02:53:11.819Z,4.65
2022-09-07T02:55:57.793Z,4.30
2022-09-07T02:58:40.741Z,4.93
2022-09-07T03:01:22.630Z,4.83
2022-09-07T03:04:03.577Z,5.87
2022-09-07T03:06:43.673Z,4.83
2022-09-07T03:09:20.932Z,5.50
2022-09-07T03:11:53.949Z,4.93
2022-09-07T03:14:31.331Z,4.77
2022-09-07T03:17:04.876Z,4.70
2022-09-07T03:19:37.341Z,4.80
2022-09-07T03:22:10.315Z,4.97
2022-09-07T03:24:43.715Z,4.87
2022-09-07T03:27:17.968Z,5.00
2022-09-07T03:29:50.875Z,4.30
2022-09-07T03:32:22.878Z,5.30
2022-09-07T03:34:55.445Z,4.73
2022-09-07T03:37:28.610Z,4.93
2022-09-07T03:40:01.872Z,4.87
2022-09-07T03:42:35.215Z,4.97
2022-09-07T03:45:09.880Z,4.33
2022-09-07T03:47:42.475Z,4.60
2022-09-07T03:50:14.668Z,5.27
2022-09-07T03:52:47.138Z,5.25
2022-09-07T03:55:19.364Z,5.53
2022-09-07T03:57:51.695Z,5.43
2022-09-07T04:00:23.904Z,5.53
2022-09-07T04:02:56.607Z,4.57
2022-09-07T04:05:29.157Z,4.73
2022-09-07T04:08:03.559Z,5.10
2022-09-07T04:10:40.299Z,5.73
2022-09-07T04:13:12.834Z,4.47
2022-09-07T04:15:45.266Z,4.97
2022-09-07T04:18:18.013Z,4.90
2022-09-07T04:20:51.074Z,5.60
2022-09-07T04:23:23.419Z,5.43
2022-09-07T04:25:58.517Z,5.50
2022-09-07T04:28:31.483Z,6.03
2022-09-07T04:31:04.399Z,4.93
2022-09-07T04:33:36.830Z,5.07
2022-09-07T04:36:09.646Z,6.00
2022-09-07T04:38:42.008Z,5.80
2022-09-07T04:41:16.681Z,5.20
2022-09-07T04:43:49.677Z,5.70
2022-09-07T04:46:23.766Z,4.97
2022-09-07T04:48:57.789Z,5.50
2022-09-07T04:51:34.417Z,5.47
2022-09-07T04:54:07.792Z,5.60
2022-09-07T04:56:43.388Z,4.97
2022-09-07T04:59:16.672Z,4.67
2022-09-07T05:01:48.893Z,5.27
2022-09-07T05:04:21.345Z,4.97
2022-09-07T05:06:53.941Z,5.73
2022-09-07T05:09:26.183Z,5.33
2022-09-07T05:11:58.365Z,5.67
2022-09-07T05:14:31.245Z,5.10
2022-09-07T05:17:04.695Z,5.67
2022-09-07T05:19:36.777Z,5.43
2022-09-07T05:22:08.994Z,5.10
2022-09-07T05:24:41.008Z,4.43
2022-09-07T05:27:13.036Z,4.93
2022-09-07T05:30:02.046Z,4.60
2022-09-07T05:32:35.304Z,4.83
2022-09-07T05:35:07.869Z,4.63
2022-09-07T05:37:40.886Z,4.50
2022-09-07T05:40:15.633Z,4.63
2022-09-07T05:42:47.836Z,4.77
2022-09-07T05:45:19.967Z,5.10
2022-09-07T05:47:52.849Z,4.90
2022-09-07T05:50:24.781Z,4.60
2022-09-07T05:52:56.765Z,4.63
2022-09-07T05:55:30.285Z,3.87
2022-09-07T06:00:33.904Z,3.90
2022-09-07T06:03:06.117Z,4.40
2022-09-07T06:05:38.514Z,4.10
2022-09-07T06:10:44.485Z,4.03
2022-09-07T06:13:16.839Z,4.30
2022-09-07T06:15:48.939Z,4.10
2022-09-07T06:18:21.135Z,4.07
2022-09-07T06:20:53.066Z,4.67
2022-09-07T06:23:25.407Z,4.10
2022-09-07T06:25:59.749Z,4.00
2022-09-07T06:28:33.968Z,3.90
2022-09-07T06:33:37.604Z,4.70
2022-09-07T06:36:12.800Z,3.73
2022-09-07T06:38:47.143Z,4.53
2022-09-07T06:49:35.326Z,4.50
2022-09-07T06:52:07.663Z,4.20
2022-09-07T06:57:34.139Z,3.43
2022-09-07T07:00:07.695Z,3.55
2022-09-07T07:02:39.628Z,3.30
2022-09-07T07:05:12.536Z,3.13
2022-09-07T07:07:44.615Z,3.50
2022-09-07T07:10:19.711Z,3.77
2022-09-07T07:12:57.827Z,2.85
2022-09-07T07:15:32.866Z,2.73
2022-09-07T07:18:19.782Z,2.93
2022-09-07T07:20:53.063Z,2.33
2022-09-07T07:23:25.141Z,2.90
2022-09-07T07:25:57.426Z,2.53
2022-09-07T07:31:24.366Z,2.43
2022-09-07T07:33:56.370Z,2.03
2022-09-07T07:36:32.840Z,2.23
2022-09-07T07:39:07.000Z,2.03
2022-09-07T07:41:58.938Z,2.40
2022-09-07T07:44:33.584Z,1.97
2022-09-07T07:47:05.560Z,1.50
2022-09-07T07:49:37.539Z,1.60
2022-09-07T07:55:01.933Z,1.50
2022-09-07T07:57:35.076Z,1.60
2022-09-07T08:00:09.105Z,1.57
2022-09-07T08:02:44.193Z,1.40
2022-09-07T08:05:17.317Z,1.60
2022-09-07T08:07:49.307Z,1.35
2022-09-07T08:10:22.682Z,1.57
2022-09-07T08:12:55.718Z,1.40
2022-09-07T08:15:27.887Z,1.47
2022-09-07T08:17:59.896Z,1.20
2022-09-07T08:20:34.033Z,1.20
2022-09-07T08:23:07.584Z,1.30
2022-09-07T08:25:39.449Z,1.10
2022-09-07T08:28:11.343Z,1.23
2022-09-07T08:30:43.281Z,1.40
2022-09-07T08:33:16.665Z,1.30
2022-09-07T08:38:33.701Z,1.73
2022-09-07T08:41:22.334Z,1.50
2022-09-07T08:43:59.779Z,1.47
2022-09-07T08:46:38.024Z,1.50
2022-09-07T08:49:17.256Z,1.30
2022-09-07T08:51:54.611Z,1.40
2022-09-07T08:54:26.677Z,1.03
2022-09-07T09:00:04.203Z,1.20
2022-09-07T09:05:38.779Z,1.10
2022-09-07T09:06:11.299Z,1.20
2022-09-07T09:08:26.143Z,1.67
2022-09-07T09:11:07.644Z,1.13
2022-09-07T09:13:52.331Z,1.23
2022-09-07T09:16:34.327Z,1.50
2022-09-07T09:19:25.008Z,1.50
2022-09-07T09:22:10.495Z,1.30
2022-09-07T09:24:49.552Z,1.03
2022-09-07T09:27:21.523Z,1.10
2022-09-07T09:29:53.991Z,1.17
2022-09-07T09:32:40.063Z,1.03
2022-09-07T09:35:21.113Z,1.10
2022-09-07T09:37:53.241Z,1.20
2022-09-07T09:40:28.123Z,1.00
2022-09-07T09:43:06.659Z,1.27
2022-09-07T09:48:42.299Z,0.80
2022-09-07T09:54:29.196Z,0.97
2022-09-07T09:57:03.892Z,0.80
2022-09-07T10:05:34.699Z,1.30
2022-09-07T10:08:17.083Z,1.40
2022-09-07T10:10:59.002Z,1.40
2022-09-07T10:13:35.468Z,1.00
2022-09-07T10:16:09.754Z,1.40
2022-09-07T10:18:55.102Z,1.30
2022-09-07T10:21:32.830Z,1.33
2022-09-07T10:24:25.381Z,1.30
2022-09-07T10:26:58.168Z,1.47
2022-09-07T10:29:36.291Z,1.25
2022-09-07T10:32:27.481Z,1.10
2022-09-07T10:35:09.457Z,1.03
2022-09-07T10:37:52.595Z,1.00
2022-09-07T10:40:34.332Z,1.17
2022-09-07T10:43:24.799Z,1.20
2022-09-07T10:46:56.330Z,1.07
2022-09-07T10:49:19.424Z,1.20
2022-09-07T10:52:04.170Z,1.33
2022-09-07T10:54:49.100Z,1.13
2022-09-07T10:57:45.598Z,1.27
2022-09-07T11:00:22.602Z,0.90
2022-09-07T11:03:28.306Z,1.10
2022-09-07T11:06:15.426Z,1.07
2022-09-07T11:09:17.286Z,1.65
2022-09-07T11:12:01.136Z,1.00
2022-09-07T11:14:42.710Z,1.03
2022-09-07T11:17:19.589Z,1.50
2022-09-07T11:19:57.487Z,1.27
2022-09-07T11:22:39.103Z,1.40
2022-09-07T11:25:36.125Z,1.10
2022-09-07T11:28:16.292Z,1.20
2022-09-07T11:30:57.851Z,1.33
2022-09-07T11:33:41.049Z,1.40
2022-09-07T11:36:17.105Z,1.10
2022-09-07T11:38:55.222Z,1.20
2022-09-07T11:41:31.351Z,1.20
2022-09-07T11:44:13.801Z,1.20
2022-09-07T11:46:48.924Z,1.70
2022-09-07T11:49:25.154Z,1.23
2022-09-07T11:52:05.473Z,1.40
2022-09-07T11:54:53.261Z,1.30
2022-09-07T11:57:45.208Z,1.13
2022-09-07T12:00:21.819Z,1.30
2022-09-07T12:03:08.952Z,1.20
2022-09-07T12:06:08.513Z,1.17
2022-09-07T12:08:57.177Z,1.10
2022-09-07T12:11:47.468Z,1.30
2022-09-07T12:14:32.998Z,1.23
2022-09-07T12:17:24.912Z,1.03
2022-09-07T12:20:17.654Z,1.23
2022-09-07T12:23:05.867Z,1.10
2022-09-07T12:25:40.932Z,1.10
2022-09-07T12:28:21.839Z,1.40
2022-09-07T12:31:00.056Z,1.17
2022-09-07T12:33:37.561Z,1.23
2022-09-07T12:36:50.385Z,1.20
2022-09-07T12:39:28.659Z,1.13
2022-09-07T12:42:38.169Z,1.30
2022-09-07T12:45:52.280Z,1.30
2022-09-07T12:48:44.142Z,1.25
2022-09-07T12:54:36.949Z,1.20
2022-09-07T12:57:29.589Z,1.20
2022-09-07T13:00:13.785Z,1.00
2022-09-07T13:03:05.334Z,1.32
2022-09-07T13:05:52.966Z,0.80
2022-09-07T13:08:44.843Z,1.10
2022-09-07T13:11:35.998Z,1.10
2022-09-07T13:14:20.363Z,1.20
2022-09-07T13:17:29.722Z,1.50
2022-09-07T13:20:23.684Z,1.20
2022-09-07T13:23:14.314Z,1.40
2022-09-07T13:25:50.687Z,1.40
2022-09-07T13:28:32.394Z,1.20
2022-09-07T13:31:30.267Z,1.00
2022-09-07T13:34:23.392Z,1.30
2022-09-07T13:36:55.931Z,1.37
2022-09-07T13:39:29.802Z,1.20
2022-09-07T13:42:03.538Z,1.47
2022-09-07T13:44:37.995Z,1.37
2022-09-07T13:47:22.112Z,1.43
2022-09-07T13:50:21.760Z,1.15
2022-09-07T13:53:33.286Z,0.90
2022-09-07T13:56:15.487Z,1.13
2022-09-07T13:58:50.882Z,1.33
2022-09-07T14:01:26.601Z,1.20
2022-09-07T14:04:07.195Z,1.07
2022-09-07T14:06:40.030Z,1.00
2022-09-07T14:09:18.595Z,1.40
2022-09-07T14:11:52.734Z,1.17
2022-09-07T14:14:27.011Z,1.27
2022-09-07T14:17:05.002Z,1.00
2022-09-07T14:19:40.427Z,1.30
2022-09-07T14:22:16.361Z,1.30
2022-09-07T14:24:54.050Z,1.10
2022-09-07T14:27:33.322Z,0.97
2022-09-07T14:30:23.080Z,1.10
2022-09-07T14:32:56.487Z,1.37
2022-09-07T14:35:33.660Z,1.13
2022-09-07T14:38:15.865Z,0.87
2022-09-07T14:40:48.097Z,1.40
2022-09-07T14:43:33.878Z,1.03
2022-09-07T14:46:18.696Z,1.10
2022-09-07T14:48:55.296Z,1.30
2022-09-07T14:51:36.616Z,1.10
2022-09-07T14:54:21.197Z,1.20
2022-09-07T14:57:06.560Z,1.23
2022-09-07T14:59:44.317Z,1.43
2022-09-07T15:02:36.602Z,1.20
2022-09-07T15:05:48.010Z,1.40
2022-09-07T15:08:37.687Z,1.33
2022-09-07T15:14:12.902Z,1.50
2022-09-07T15:16:46.561Z,1.57
2022-09-07T15:19:36.148Z,1.30
2022-09-07T15:22:13.660Z,1.70
2022-09-07T15:24:47.984Z,1.67
2022-09-07T15:27:28.191Z,1.50
2022-09-07T15:30:00.075Z,1.70
2022-09-07T15:32:32.606Z,1.80
2022-09-07T15:35:05.484Z,1.77
2022-09-07T15:40:33.571Z,1.63
2022-09-07T15:43:19.421Z,2.10
2022-09-07T15:45:53.267Z,1.90
2022-09-07T15:48:26.946Z,2.27
2022-09-07T15:56:30.693Z,2.10
2022-09-07T15:59:03.322Z,2.05
2022-09-07T16:04:28.737Z,1.50
2022-09-07T16:07:02.035Z,1.85
2022-09-07T16:09:37.591Z,1.80
2022-09-07T16:15:04.491Z,1.62
2022-09-07T16:17:46.851Z,1.63
2022-09-07T16:20:20.437Z,1.40
2022-09-07T16:25:58.269Z,1.47
2022-09-07T16:28:32.568Z,1.50
2022-09-07T16:31:09.174Z,1.50
2022-09-07T16:33:41.338Z,1.70
2022-09-07T16:36:16.159Z,1.57
2022-09-07T16:38:49.395Z,1.97
2022-09-07T16:41:24.537Z,1.50
2022-09-07T16:43:56.957Z,1.30
2022-09-07T16:46:35.572Z,1.95
2022-09-07T16:49:08.257Z,1.90
2022-09-07T16:51:40.887Z,1.63
2022-09-07T16:54:15.973Z,1.63
2022-09-07T16:56:48.172Z,1.83
2022-09-07T16:59:26.362Z,1.77
2022-09-07T17:01:58.340Z,1.63
2022-09-07T17:04:34.736Z,1.77
2022-09-07T17:07:08.176Z,1.93
2022-09-07T17:09:41.580Z,1.72
2022-09-07T17:12:13.705Z,2.02
2022-09-07T17:14:48.199Z,1.80
2022-09-07T17:17:20.337Z,1.90
2022-09-07T17:19:53.116Z,1.80
2022-09-07T17:22:26.478Z,1.50
2022-09-07T17:24:58.874Z,1.72
2022-09-07T17:27:35.799Z,1.85
2022-09-07T17:30:09.819Z,1.43
2022-09-07T17:35:13.307Z,2.30
2022-09-07T17:37:45.526Z,2.07
2022-09-07T17:40:17.629Z,2.03
2022-09-07T17:45:43.440Z,1.90
2022-09-07T17:48:15.387Z,2.10
2022-09-07T17:50:47.810Z,2.23
2022-09-07T17:53:19.691Z,1.97
2022-09-07T17:55:51.873Z,2.60
2022-09-07T17:58:24.624Z,2.00
2022-09-07T18:01:01.736Z,2.20
2022-09-07T18:03:36.185Z,1.97
2022-09-07T18:06:09.243Z,2.10
2022-09-07T18:08:41.745Z,2.03
2022-09-07T18:14:09.479Z,2.25
2022-09-07T18:16:45.535Z,2.10
2022-09-07T18:19:19.073Z,2.27
2022-09-07T18:21:52.045Z,2.15
2022-09-07T18:24:25.570Z,2.10
2022-09-07T18:26:58.314Z,2.42
2022-09-07T18:29:34.358Z,2.97
2022-09-07T18:32:09.994Z,2.13
2022-09-07T18:34:49.831Z,2.30
2022-09-07T18:37:22.678Z,2.63
2022-09-07T18:39:57.865Z,2.67
2022-09-07T18:42:30.564Z,2.50
2022-09-07T18:47:56.097Z,2.80
2022-09-07T18:50:28.200Z,2.15
2022-09-07T18:53:07.542Z,1.80
2022-09-07T18:55:46.194Z,2.60
2022-09-07T18:58:19.520Z,2.23
2022-09-07T19:00:58.055Z,2.80
2022-09-07T19:03:30.550Z,2.33
2022-09-07T19:06:05.740Z,2.50
2022-09-07T19:08:40.125Z,2.30
2022-09-07T19:11:13.590Z,2.07
2022-09-07T19:13:46.456Z,2.58
2022-09-07T19:16:20.160Z,2.13
2022-09-07T19:18:54.851Z,2.45
2022-09-07T19:21:33.248Z,1.97
2022-09-07T19:24:10.397Z,2.50
2022-09-07T19:26:46.795Z,2.10
2022-09-07T19:29:20.051Z,1.90
2022-09-07T19:32:05.765Z,2.10
2022-09-07T19:34:39.694Z,3.10
2022-09-07T19:37:15.344Z,2.27
2022-09-07T19:39:52.219Z,2.40
2022-09-07T19:42:24.909Z,2.70
2022-09-07T19:44:57.149Z,2.67
2022-09-07T19:47:29.708Z,2.73
2022-09-07T19:50:04.219Z,2.60
2022-09-07T19:52:37.647Z,2.70
2022-09-07T19:55:11.362Z,2.55
2022-09-07T19:57:46.611Z,3.10
2022-09-07T20:00:19.457Z,2.80
2022-09-07T20:02:52.798Z,2.90
2022-09-07T20:05:29.545Z,3.33
2022-09-07T20:08:05.006Z,2.70
2022-09-07T20:10:37.873Z,2.70
2022-09-07T20:13:10.329Z,3.23
2022-09-07T20:15:43.888Z,3.13
2022-09-07T20:18:15.889Z,2.85
2022-09-07T20:20:47.793Z,3.33
2022-09-07T20:23:19.934Z,3.27
2022-09-07T20:26:00.840Z,3.40
2022-09-07T20:28:34.570Z,3.43
2022-09-07T20:31:10.232Z,3.23
2022-09-07T20:33:42.835Z,3.40
2022-09-07T20:36:17.233Z,4.10
2022-09-07T20:38:51.783Z,3.20
2022-09-07T20:41:25.955Z,3.40
2022-09-07T20:44:00.387Z,3.20
2022-09-07T20:46:37.964Z,4.17
2022-09-07T20:49:10.120Z,3.60
2022-09-07T20:51:42.504Z,3.50
2022-09-07T20:54:15.584Z,3.13
2022-09-07T20:56:48.373Z,3.27
2022-09-07T20:59:20.404Z,3.00
2022-09-07T21:01:52.793Z,3.20
2022-09-07T21:04:26.501Z,3.47
2022-09-07T21:06:58.460Z,3.35
2022-09-07T21:09:30.373Z,3.47
2022-09-07T21:12:03.994Z,3.47
2022-09-07T21:14:37.596Z,3.43
2022-09-07T21:17:10.274Z,3.50
2022-09-07T21:19:42.137Z,3.13
2022-09-07T21:22:14.569Z,3.03
2022-09-07T21:24:49.284Z,2.73
2022-09-07T21:27:21.953Z,3.20
2022-09-07T21:29:53.882Z,3.37
2022-09-07T21:32:26.764Z,3.35
2022-09-07T21:34:58.633Z,3.90
2022-09-07T21:37:31.547Z,4.00
2022-09-07T21:40:06.205Z,3.37
2022-09-07T21:46:08.038Z,3.23
2022-09-07T21:48:41.393Z,3.00
2022-09-07T21:51:14.235Z,3.77
2022-09-07T21:53:47.278Z,3.43
2022-09-07T21:56:19.258Z,3.43
2022-09-07T21:58:54.222Z,3.50
2022-09-07T22:01:28.477Z,4.20
2022-09-07T22:04:02.732Z,3.90
2022-09-07T22:06:35.437Z,3.30
2022-09-07T22:09:08.130Z,3.67
2022-09-07T22:11:43.025Z,3.43
2022-09-07T22:14:18.592Z,4.00
2022-09-07T22:16:50.587Z,3.50
2022-09-07T22:19:23.140Z,4.10
2022-09-07T22:21:55.433Z,3.60
2022-09-07T22:24:27.721Z,4.20
2022-09-07T22:26:59.940Z,3.83
2022-09-07T22:29:32.105Z,4.37
2022-09-07T22:32:04.423Z,3.77
2022-09-07T22:34:36.343Z,3.93
2022-09-07T22:37:08.363Z,3.60
2022-09-07T22:39:40.832Z,3.63
2022-09-07T22:42:14.188Z,4.28
2022-09-07T22:44:48.718Z,3.77
2022-09-07T22:47:20.822Z,4.00
2022-09-07T22:49:53.156Z,4.17
2022-09-07T22:52:25.325Z,3.57
2022-09-07T22:54:57.380Z,4.20
2022-09-07T22:57:29.646Z,3.20
2022-09-07T23:00:01.840Z,5.00
2022-09-07T23:02:34.092Z,3.47
2022-09-07T23:05:06.501Z,3.75
2022-09-07T23:07:38.834Z,3.63
2022-09-07T23:10:12.767Z,4.10
2022-09-07T23:12:45.114Z,3.45
2022-09-07T23:15:17.389Z,3.83
2022-09-07T23:17:49.384Z,3.93
2022-09-07T23:20:21.673Z,4.27
2022-09-07T23:22:53.892Z,3.70
2022-09-07T23:25:28.522Z,4.10
2022-09-07T23:28:00.481Z,4.30
2022-09-07T23:30:33.248Z,3.57
2022-09-07T23:33:05.536Z,4.07
2022-09-07T23:35:37.910Z,3.70
2022-09-07T23:38:10.486Z,3.90
2022-09-07T23:40:43.173Z,4.00
2022-09-07T23:43:15.402Z,4.17
2022-09-07T23:45:47.728Z,3.60
2022-09-07T23:48:20.346Z,3.40
2022-09-07T23:50:53.374Z,3.67
2022-09-07T23:53:25.960Z,4.23
2022-09-07T23:55:58.114Z,4.23
2022-09-07T23:58:30.319Z,3.80
